Terminal Aerodrome Forecast
Issued by NWS

Home | Current Version | Previous Version | Text Only | Print | Product List | Glossary On
Versions: 1 2 3 4 5 6 7 8 9 10 11 12 13 14 15 16 17 18 19 20 21 22 23 24 25 26 27 28 29 30 31 32 33 34 35 36 37 38 39 40 41
000
FTUS43 KGRB 302300
TAFRHI
TAF
KRHI 302335Z 3100/3124 35005KT P6SM SCT010 BKN015
     FM310100 36004KT P6SM BKN020
     FM310500 00000KT 2SM BR SCT002 SCT020
      TEMPO 3108/3112 1/4SM FG VV002
     FM311300 14003KT 3SM BR BKN006
     FM311600 15007KT P6SM SCT020=

USA.gov is the U.S. government's official web portal to all federal, state and local government web resources and services.